Time;durP1;ratioP1;P1;durP2;ratioP2;P2;SDS_P1;SDS_P2;PMS_P1;PMS_P2;Temp;Humidity;BMP_temperature;BMP_pressure;BME280_temperature;BME280_humidity;BME280_pressure;Samples;Min_cycle;Max_cycle;Signal;HPM_P1;HPM_P2
2021/01/01 00:02:10;;;;;;;7.50;6.10;;;;;;;;;;4795167;30;20456;-88
2021/01/01 00:04:37;;;;;;;6.22;5.70;;;;;;;;;;4796072;30;20215;-89
2021/01/01 00:07:06;;;;;;;6.97;5.70;;;;;;;;;;4795389;29;20294;-89
2021/01/01 00:09:34;;;;;;;7.35;6.63;;;;;;;;;;4812016;29;20239;-88
2021/01/01 00:12:01;;;;;;;7.38;6.68;;;;;;;;;;4813702;29;20594;-87
2021/01/01 00:14:28;;;;;;;7.72;7.03;;;;;;;;;;4813559;29;20259;-87
2021/01/01 00:16:55;;;;;;;6.18;5.63;;;;;;;;;;4813136;29;20191;-88
2021/01/01 00:19:22;;;;;;;6.85;6.22;;;;;;;;;;4813741;29;20214;-88
2021/01/01 00:21:49;;;;;;;5.40;4.88;;;;;;;;;;4813183;29;20527;-88
2021/01/01 00:24:16;;;;;;;4.78;4.38;;;;;;;;;;4813131;29;20191;-87
2021/01/01 00:26:45;;;;;;;5.18;4.68;;;;;;;;;;4812889;29;20558;-88
2021/01/01 00:29:12;;;;;;;6.15;5.10;;;;;;;;;;4812657;29;20234;-88
2021/01/01 00:31:39;;;;;;;5.53;5.00;;;;;;;;;;4812924;29;20554;-87
2021/01/01 00:34:06;;;;;;;5.60;5.10;;;;;;;;;;4813576;29;20206;-88
2021/01/01 00:36:33;;;;;;;5.60;5.05;;;;;;;;;;4812931;29;20203;-88
2021/01/01 00:39:00;;;;;;;7.43;5.13;;;;;;;;;;4812462;29;20669;-87
2021/01/01 00:41:29;;;;;;;6.90;6.25;;;;;;;;;;4812742;29;20191;-89
2021/01/01 00:43:58;;;;;;;6.93;5.57;;;;;;;;;;4812664;29;20187;-87
2021/01/01 00:46:27;;;;;;;7.63;5.60;;;;;;;;;;4813268;29;20247;-87
2021/01/01 00:48:55;;;;;;;5.22;4.75;;;;;;;;;;4812337;29;20619;-87
2021/01/01 00:51:26;;;;;;;6.90;6.30;;;;;;;;;;4812338;29;20211;-87
2021/01/01 00:53:53;;;;;;;7.97;7.18;;;;;;;;;;4812971;29;20227;-87
2021/01/01 00:56:21;;;;;;;11.63;8.68;;;;;;;;;;4813406;29;20210;-87
2021/01/01 00:58:50;;;;;;;9.65;8.35;;;;;;;;;;4813050;29;20437;-88
2021/01/01 01:01:18;;;;;;;9.32;7.88;;;;;;;;;;4812374;29;20194;-87
2021/01/01 01:03:46;;;;;;;5.75;4.78;;;;;;;;;;4812707;29;20213;-87
2021/01/01 01:06:13;;;;;;;4.85;4.45;;;;;;;;;;4812179;29;20581;-87
2021/01/01 01:08:40;;;;;;;6.38;5.78;;;;;;;;;;4812099;29;20253;-88
2021/01/01 01:11:07;;;;;;;5.75;5.25;;;;;;;;;;4812561;29;20247;-87
2021/01/01 01:13:34;;;;;;;6.03;5.10;;;;;;;;;;4813018;29;20211;-87
2021/01/01 01:16:00;;;;;;;5.35;4.85;;;;;;;;;;4812752;29;20209;-87
2021/01/01 01:18:28;;;;;;;4.53;4.13;;;;;;;;;;4812191;29;20207;-88
2021/01/01 01:20:55;;;;;;;5.20;4.80;;;;;;;;;;4812441;29;20533;-88
2021/01/01 01:23:23;;;;;;;5.93;5.35;;;;;;;;;;4812113;29;20206;-87
2021/01/01 01:25:50;;;;;;;5.47;4.97;;;;;;;;;;4812604;29;20274;-87
2021/01/01 01:28:18;;;;;;;6.70;6.05;;;;;;;;;;4812641;29;20214;-87
2021/01/01 01:30:45;;;;;;;6.60;5.95;;;;;;;;;;4811887;29;20206;-87
2021/01/01 01:33:12;;;;;;;6.03;4.93;;;;;;;;;;4811933;29;20205;-88
2021/01/01 01:35:40;;;;;;;6.00;5.43;;;;;;;;;;4812587;29;20467;-87
2021/01/01 01:38:07;;;;;;;6.40;5.80;;;;;;;;;;4812221;29;20316;-87
2021/01/01 01:40:34;;;;;;;7.65;6.95;;;;;;;;;;4812109;29;20572;-88
2021/01/01 01:43:01;;;;;;;8.88;8.07;;;;;;;;;;4811628;29;20550;-88
2021/01/01 01:45:28;;;;;;;8.50;7.55;;;;;;;;;;4812472;29;20468;-88
2021/01/01 01:47:55;;;;;;;8.82;8.02;;;;;;;;;;4811488;29;20569;-88
2021/01/01 01:50:23;;;;;;;8.05;7.25;;;;;;;;;;4811927;29;20226;-87
2021/01/01 01:52:51;;;;;;;8.75;7.43;;;;;;;;;;4812096;29;20538;-87
2021/01/01 01:55:18;;;;;;;9.15;8.02;;;;;;;;;;4812410;29;20295;-87
2021/01/01 01:57:46;;;;;;;11.52;8.18;;;;;;;;;;4811607;29;20243;-87
2021/01/01 02:00:38;;;;;;;9.02;7.40;;;;;;;;;;4811527;29;20622;-88
2021/01/01 02:03:05;;;;;;;9.38;8.25;;;;;;;;;;4812153;29;20293;-88
2021/01/01 02:05:32;;;;;;;9.73;8.48;;;;;;;;;;4812090;29;20466;-88
2021/01/01 02:08:00;;;;;;;8.07;7.28;;;;;;;;;;4811758;29;20239;-88
2021/01/01 02:10:27;;;;;;;8.32;6.85;;;;;;;;;;4811456;29;20589;-89
2021/01/01 02:12:54;;;;;;;7.47;6.43;;;;;;;;;;4811391;29;20211;-87
2021/01/01 02:15:21;;;;;;;7.90;7.05;;;;;;;;;;4811708;29;20220;-87
2021/01/01 02:17:48;;;;;;;8.27;7.43;;;;;;;;;;4810942;29;20286;-88
2021/01/01 02:20:21;;;;;;;8.48;7.65;;;;;;;;;;4810968;29;20550;-88
2021/01/01 02:22:49;;;;;;;8.82;6.65;;;;;;;;;;4756492;30;20220;-87
2021/01/01 02:25:16;;;;;;;7.05;6.35;;;;;;;;;;4756078;30;20580;-88
2021/01/01 02:27:43;;;;;;;8.52;7.03;;;;;;;;;;4756427;30;20211;-88
2021/01/01 02:30:12;;;;;;;10.05;7.80;;;;;;;;;;4755955;30;20321;-87
2021/01/01 02:32:39;;;;;;;8.13;7.32;;;;;;;;;;4756678;30;20209;-87
2021/01/01 02:35:09;;;;;;;10.18;8.23;;;;;;;;;;4756052;30;20204;-87
2021/01/01 02:37:36;;;;;;;8.93;8.02;;;;;;;;;;4756027;30;20203;-88
2021/01/01 02:40:05;;;;;;;9.68;8.30;;;;;;;;;;4756814;30;20461;-87
2021/01/01 02:42:32;;;;;;;8.63;7.75;;;;;;;;;;4756702;30;20210;-87
2021/01/01 02:44:59;;;;;;;10.20;9.02;;;;;;;;;;4760195;30;20220;-88
2021/01/01 02:47:26;;;;;;;8.43;7.60;;;;;;;;;;4787110;29;20210;-88
2021/01/01 02:49:53;;;;;;;10.90;8.23;;;;;;;;;;4815162;29;20576;-87
2021/01/01 02:52:20;;;;;;;10.95;9.40;;;;;;;;;;4814947;29;20203;-89
2021/01/01 02:54:47;;;;;;;13.10;10.00;;;;;;;;;;4815242;29;20215;-88
2021/01/01 02:57:15;;;;;;;9.95;8.65;;;;;;;;;;4814181;29;20274;-87
2021/01/01 02:59:42;;;;;;;13.45;10.35;;;;;;;;;;4814848;29;20210;-87
2021/01/01 03:02:09;;;;;;;15.55;11.70;;;;;;;;;;4815216;29;20217;-88
2021/01/01 03:04:36;;;;;;;13.43;11.80;;;;;;;;;;4814561;29;20208;-87
2021/01/01 03:07:03;;;;;;;16.05;13.63;;;;;;;;;;4814347;29;20203;-87
2021/01/01 03:09:30;;;;;;;15.90;12.75;;;;;;;;;;4814055;29;20612;-87
2021/01/01 03:11:57;;;;;;;23.83;17.02;;;;;;;;;;4814419;29;20194;-87
2021/01/01 03:14:24;;;;;;;24.98;16.75;;;;;;;;;;4814197;29;20191;-88
2021/01/01 03:16:51;;;;;;;21.63;16.27;;;;;;;;;;4814616;29;20213;-87
2021/01/01 03:19:18;;;;;;;18.80;14.23;;;;;;;;;;4814838;29;20289;-88
2021/01/01 03:21:46;;;;;;;17.55;14.15;;;;;;;;;;4815043;29;20212;-88
2021/01/01 03:24:13;;;;;;;21.42;15.63;;;;;;;;;;4814006;29;20191;-87
2021/01/01 03:26:40;;;;;;;17.38;12.98;;;;;;;;;;4814353;29;20264;-87
2021/01/01 03:29:07;;;;;;;19.25;13.57;;;;;;;;;;4813968;29;20218;-88
2021/01/01 03:31:35;;;;;;;16.42;13.70;;;;;;;;;;4814521;29;20198;-87
2021/01/01 03:34:02;;;;;;;18.05;12.95;;;;;;;;;;4814417;29;20207;-88
2021/01/01 03:36:29;;;;;;;13.68;11.85;;;;;;;;;;4813570;29;20187;-87
2021/01/01 03:38:56;;;;;;;14.50;11.48;;;;;;;;;;4813511;29;20313;-88
2021/01/01 03:41:23;;;;;;;13.88;10.80;;;;;;;;;;4814267;29;20518;-87
2021/01/01 03:43:50;;;;;;;13.35;11.40;;;;;;;;;;4814499;29;20440;-87
2021/01/01 03:46:17;;;;;;;16.15;12.43;;;;;;;;;;4813634;29;20211;-87
2021/01/01 03:48:45;;;;;;;15.27;12.15;;;;;;;;;;4813807;29;20594;-87
2021/01/01 03:51:12;;;;;;;12.02;10.73;;;;;;;;;;4814030;29;20240;-88
2021/01/01 03:53:39;;;;;;;13.65;10.23;;;;;;;;;;4813878;29;20203;-87
2021/01/01 03:56:06;;;;;;;15.90;11.38;;;;;;;;;;4814214;29;20199;-87
2021/01/01 03:58:33;;;;;;;13.00;10.23;;;;;;;;;;4813933;29;20202;-87
2021/01/01 04:01:00;;;;;;;14.35;11.68;;;;;;;;;;4813587;29;20218;-87
2021/01/01 04:03:28;;;;;;;11.65;10.00;;;;;;;;;;4814275;29;20280;-87
2021/01/01 04:05:56;;;;;;;13.88;11.07;;;;;;;;;;4813446;29;20560;-87
2021/01/01 04:08:23;;;;;;;12.80;10.93;;;;;;;;;;4813156;29;20249;-87
2021/01/01 04:10:49;;;;;;;13.60;10.60;;;;;;;;;;4813465;29;20207;-88
2021/01/01 04:13:16;;;;;;;12.30;9.23;;;;;;;;;;4813615;29;20206;-87
2021/01/01 04:15:44;;;;;;;11.30;9.23;;;;;;;;;;4814168;29;20207;-88
2021/01/01 04:18:11;;;;;;;12.52;11.13;;;;;;;;;;4813544;29;20193;-87
2021/01/01 04:20:38;;;;;;;12.90;9.98;;;;;;;;;;4813218;29;20209;-87
2021/01/01 04:23:06;;;;;;;12.80;10.23;;;;;;;;;;4813754;29;20211;-88
2021/01/01 04:25:33;;;;;;;11.63;8.85;;;;;;;;;;4813580;29;20203;-87
2021/01/01 04:28:00;;;;;;;13.30;11.07;;;;;;;;;;4813185;29;20222;-88
2021/01/01 04:30:27;;;;;;;12.70;9.68;;;;;;;;;;4813444;29;20230;-88
2021/01/01 04:32:54;;;;;;;13.45;10.10;;;;;;;;;;4813225;29;20218;-87
2021/01/01 04:35:21;;;;;;;11.45;9.32;;;;;;;;;;4812842;29;20198;-88
2021/01/01 04:37:48;;;;;;;10.20;9.00;;;;;;;;;;4813118;29;20603;-87
2021/01/01 04:40:16;;;;;;;10.93;9.15;;;;;;;;;;4813372;29;20325;-86
2021/01/01 04:42:43;;;;;;;11.18;9.05;;;;;;;;;;4813001;29;20570;-89
2021/01/01 04:45:12;;;;;;;8.77;7.47;;;;;;;;;;4812989;29;20277;-87
2021/01/01 04:47:40;;;;;;;9.60;8.05;;;;;;;;;;4812574;29;20187;-87
2021/01/01 04:50:08;;;;;;;11.07;8.25;;;;;;;;;;4812253;29;20215;-87
2021/01/01 04:52:35;;;;;;;9.38;8.10;;;;;;;;;;4812549;29;20205;-87
2021/01/01 04:55:03;;;;;;;9.68;7.85;;;;;;;;;;4812478;29;20472;-87
2021/01/01 04:57:31;;;;;;;9.00;7.90;;;;;;;;;;4812917;29;20286;-87
2021/01/01 04:59:58;;;;;;;9.52;7.65;;;;;;;;;;4813063;29;20203;-87
2021/01/01 05:02:25;;;;;;;9.32;7.50;;;;;;;;;;4812654;29;20290;-87
2021/01/01 05:04:57;;;;;;;9.10;7.18;;;;;;;;;;4811815;29;20282;-89
2021/01/01 05:07:24;;;;;;;8.30;6.68;;;;;;;;;;4812404;29;20307;-88
2021/01/01 05:09:51;;;;;;;9.43;7.35;;;;;;;;;;4811534;29;20238;-87
2021/01/01 05:12:18;;;;;;;7.70;6.90;;;;;;;;;;4812334;29;20199;-88
2021/01/01 05:14:46;;;;;;;10.10;8.27;;;;;;;;;;4811899;29;20323;-88
2021/01/01 05:17:13;;;;;;;8.93;7.95;;;;;;;;;;4812523;29;20212;-88
2021/01/01 05:19:42;;;;;;;12.98;8.55;;;;;;;;;;4812061;29;20187;-88
2021/01/01 05:22:10;;;;;;;9.70;8.68;;;;;;;;;;4811769;29;20564;-87
2021/01/01 05:24:40;;;;;;;8.80;7.70;;;;;;;;;;4812044;29;20259;-87
2021/01/01 05:27:13;;;;;;;10.98;8.40;;;;;;;;;;4812009;29;20222;-88
2021/01/01 05:29:51;;;;;;;10.20;8.68;;;;;;;;;;4812728;29;20203;-88
2021/01/01 05:32:22;;;;;;;10.02;8.95;;;;;;;;;;4811955;29;20190;-87
2021/01/01 05:34:49;;;;;;;9.57;8.23;;;;;;;;;;4812298;29;20207;-87
2021/01/01 05:37:31;;;;;;;10.95;8.65;;;;;;;;;;4812463;29;20435;-87
2021/01/01 05:40:08;;;;;;;8.88;7.53;;;;;;;;;;4812177;29;20630;-88
2021/01/01 05:42:36;;;;;;;10.68;7.30;;;;;;;;;;4811983;29;20191;-87
2021/01/01 05:45:14;;;;;;;8.43;7.55;;;;;;;;;;4812471;29;20214;-88
2021/01/01 05:47:41;;;;;;;9.45;7.78;;;;;;;;;;4811352;29;20273;-87
2021/01/01 05:50:10;;;;;;;8.20;6.75;;;;;;;;;;4811699;29;20283;-87
2021/01/01 05:52:37;;;;;;;8.13;7.32;;;;;;;;;;4811588;29;20234;-87
2021/01/01 05:55:06;;;;;;;7.35;6.53;;;;;;;;;;4811288;29;20213;-87
2021/01/01 05:57:38;;;;;;;7.20;5.80;;;;;;;;;;4811533;29;20199;-87
2021/01/01 06:00:10;;;;;;;6.50;5.90;;;;;;;;;;4812469;29;20339;-87
2021/01/01 06:02:40;;;;;;;7.18;6.47;;;;;;;;;;4811126;29;20270;-87
2021/01/01 06:05:09;;;;;;;5.93;5.07;;;;;;;;;;4811807;29;20220;-87
2021/01/01 06:07:38;;;;;;;6.60;5.82;;;;;;;;;;4810930;29;20685;-87
2021/01/01 06:10:07;;;;;;;5.63;5.07;;;;;;;;;;4811022;29;20187;-88
2021/01/01 06:12:36;;;;;;;6.57;5.68;;;;;;;;;;4811309;29;20277;-87
2021/01/01 06:15:06;;;;;;;5.72;4.97;;;;;;;;;;4811243;29;20197;-87
2021/01/01 06:17:48;;;;;;;6.70;5.50;;;;;;;;;;4812195;29;20213;-87
2021/01/01 06:20:19;;;;;;;6.00;5.25;;;;;;;;;;4811490;29;20232;-87
2021/01/01 06:23:02;;;;;;;5.80;5.18;;;;;;;;;;4811712;29;20271;-87
2021/01/01 06:25:30;;;;;;;6.20;5.28;;;;;;;;;;4809545;29;20539;-87
2021/01/01 06:27:57;;;;;;;6.60;5.65;;;;;;;;;;4810992;29;20589;-87
2021/01/01 06:30:25;;;;;;;5.32;4.63;;;;;;;;;;4811149;29;20573;-87
2021/01/01 06:32:54;;;;;;;5.88;5.38;;;;;;;;;;4811611;29;20190;-87
2021/01/01 06:35:23;;;;;;;5.95;5.28;;;;;;;;;;4810797;29;20201;-87
2021/01/01 06:37:51;;;;;;;6.63;5.63;;;;;;;;;;4811231;29;20251;-88
2021/01/01 06:40:36;;;;;;;5.38;4.88;;;;;;;;;;4811096;29;20210;-87
2021/01/01 06:43:05;;;;;;;6.53;5.82;;;;;;;;;;4810978;29;20190;-87
2021/01/01 06:45:43;;;;;;;5.68;5.07;;;;;;;;;;4810840;29;20581;-88
2021/01/01 06:48:13;;;;;;;7.32;6.30;;;;;;;;;;4810755;29;20195;-87
2021/01/01 06:50:41;;;;;;;8.75;6.50;;;;;;;;;;4811319;29;20218;-87
2021/01/01 06:53:11;;;;;;;11.43;9.07;;;;;;;;;;4811368;29;20270;-87
2021/01/01 06:55:39;;;;;;;7.25;5.78;;;;;;;;;;4811291;29;20206;-88
2021/01/01 06:58:08;;;;;;;8.10;6.13;;;;;;;;;;4795664;29;20569;-87
2021/01/01 07:00:57;;;;;;;8.98;6.95;;;;;;;;;;4811581;29;20463;-87
2021/01/01 07:03:39;;;;;;;8.45;6.88;;;;;;;;;;4810869;29;20544;-87
2021/01/01 07:06:49;;;;;;;9.25;7.40;;;;;;;;;;4811756;29;20229;-88
2021/01/01 07:09:16;;;;;;;7.32;6.53;;;;;;;;;;4796810;29;20260;-87
2021/01/01 07:11:46;;;;;;;7.30;6.45;;;;;;;;;;4810175;29;20266;-88
2021/01/01 07:14:20;;;;;;;7.32;6.00;;;;;;;;;;4810977;29;20199;-88
2021/01/01 07:16:50;;;;;;;8.27;6.55;;;;;;;;;;4810770;29;20193;-88
2021/01/01 07:19:18;;;;;;;7.30;6.07;;;;;;;;;;4810568;29;20673;-88
2021/01/01 07:21:45;;;;;;;9.00;7.03;;;;;;;;;;4810860;29;20198;-88
2021/01/01 07:24:13;;;;;;;10.77;8.07;;;;;;;;;;4811451;29;20275;-87
2021/01/01 07:26:40;;;;;;;7.47;6.50;;;;;;;;;;4811352;29;20199;-88
2021/01/01 07:29:07;;;;;;;7.82;6.80;;;;;;;;;;4812898;29;20220;-87
2021/01/01 07:31:34;;;;;;;7.13;6.03;;;;;;;;;;4814292;29;20231;-88
2021/01/01 07:34:11;;;;;;;8.40;6.70;;;;;;;;;;4814139;29;20554;-88
2021/01/01 07:36:39;;;;;;;7.65;6.82;;;;;;;;;;4814372;29;20213;-88
2021/01/01 07:39:08;;;;;;;8.65;6.60;;;;;;;;;;4813604;29;20296;-89
2021/01/01 07:41:35;;;;;;;7.65;6.07;;;;;;;;;;4814608;29;20202;-88
2021/01/01 07:44:02;;;;;;;9.43;7.88;;;;;;;;;;4813818;29;20183;-87
2021/01/01 07:46:33;;;;;;;10.65;7.28;;;;;;;;;;4813947;29;20207;-87
2021/01/01 07:49:01;;;;;;;10.23;8.25;;;;;;;;;;4813882;29;20266;-88
2021/01/01 07:51:28;;;;;;;8.95;7.72;;;;;;;;;;4814107;29;20236;-88
2021/01/01 07:54:01;;;;;;;8.10;6.70;;;;;;;;;;4814086;29;20273;-88
2021/01/01 07:56:28;;;;;;;9.07;8.05;;;;;;;;;;4813831;29;20200;-87
2021/01/01 07:58:55;;;;;;;8.85;7.10;;;;;;;;;;4814231;29;20202;-88
2021/01/01 08:01:23;;;;;;;8.65;7.07;;;;;;;;;;4814374;29;20453;-88
2021/01/01 08:03:51;;;;;;;9.75;7.38;;;;;;;;;;4814023;29;20225;-88
2021/01/01 08:06:19;;;;;;;9.13;6.97;;;;;;;;;;4813407;29;20502;-88
2021/01/01 08:08:46;;;;;;;8.20;7.32;;;;;;;;;;4812934;29;20253;-87
2021/01/01 08:11:14;;;;;;;8.38;7.57;;;;;;;;;;4813992;29;20237;-88
2021/01/01 08:13:41;;;;;;;10.32;8.00;;;;;;;;;;4813933;29;20203;-88
2021/01/01 08:16:13;;;;;;;11.80;9.10;;;;;;;;;;4813586;29;20210;-87
2021/01/01 08:18:41;;;;;;;11.90;9.50;;;;;;;;;;4813340;29;20199;-88
2021/01/01 08:21:08;;;;;;;11.32;9.95;;;;;;;;;;4813805;29;20215;-88
2021/01/01 08:23:46;;;;;;;12.25;10.55;;;;;;;;;;4813388;29;20214;-88
2021/01/01 08:26:16;;;;;;;11.18;9.50;;;;;;;;;;4813861;29;20452;-89
2021/01/01 08:28:44;;;;;;;9.65;8.50;;;;;;;;;;4814078;29;20214;-89
2021/01/01 08:31:12;;;;;;;11.38;9.90;;;;;;;;;;4813685;29;20211;-87
2021/01/01 08:33:40;;;;;;;12.15;9.82;;;;;;;;;;4812984;29;20199;-87
2021/01/01 08:36:10;;;;;;;12.88;10.80;;;;;;;;;;4813200;29;20221;-87
2021/01/01 08:38:39;;;;;;;14.77;10.73;;;;;;;;;;4813356;29;20593;-88
2021/01/01 08:41:06;;;;;;;11.95;9.57;;;;;;;;;;4812285;29;20234;-87
2021/01/01 08:43:34;;;;;;;11.88;9.95;;;;;;;;;;4813713;29;20285;-88
2021/01/01 08:46:01;;;;;;;12.32;9.50;;;;;;;;;;4812857;29;20183;-88
2021/01/01 08:48:29;;;;;;;11.73;9.73;;;;;;;;;;4813405;29;20198;-88
2021/01/01 08:50:57;;;;;;;12.93;9.45;;;;;;;;;;4812875;29;20206;-88
2021/01/01 08:53:24;;;;;;;11.77;10.35;;;;;;;;;;4812260;29;20225;-89
2021/01/01 08:55:58;;;;;;;11.27;10.10;;;;;;;;;;4813102;29;20274;-88
2021/01/01 08:58:25;;;;;;;10.90;9.60;;;;;;;;;;4812394;29;20200;-89
2021/01/01 09:00:53;;;;;;;14.77;10.95;;;;;;;;;;4813311;29;20206;-88
2021/01/01 09:03:23;;;;;;;13.35;10.50;;;;;;;;;;4812560;29;20264;-88
2021/01/01 09:05:54;;;;;;;12.00;10.13;;;;;;;;;;4812761;29;20218;-88
2021/01/01 09:08:23;;;;;;;10.75;8.75;;;;;;;;;;4812103;29;20242;-88
2021/01/01 09:10:52;;;;;;;12.50;9.70;;;;;;;;;;4812520;29;20189;-88
2021/01/01 09:13:24;;;;;;;11.68;10.20;;;;;;;;;;4812607;29;20286;-87
2021/01/01 09:16:03;;;;;;;12.52;9.52;;;;;;;;;;4811980;29;20194;-88
2021/01/01 09:18:31;;;;;;;14.07;9.85;;;;;;;;;;4812813;29;20224;-87
2021/01/01 09:21:11;;;;;;;12.38;10.32;;;;;;;;;;4812677;29;20221;-87
2021/01/01 09:23:38;;;;;;;12.63;9.77;;;;;;;;;;4812746;29;20294;-88
2021/01/01 09:26:05;;;;;;;11.90;10.05;;;;;;;;;;4812020;29;20186;-87
2021/01/01 09:28:33;;;;;;;12.18;10.82;;;;;;;;;;4812578;29;20457;-88
2021/01/01 09:31:02;;;;;;;13.85;10.68;;;;;;;;;;4812175;29;20187;-87
2021/01/01 09:33:29;;;;;;;32.75;25.83;;;;;;;;;;4812294;29;20498;-87
2021/01/01 09:35:56;;;;;;;25.10;18.60;;;;;;;;;;4811818;29;20191;-89
2021/01/01 09:38:23;;;;;;;19.50;14.73;;;;;;;;;;4811930;29;20517;-89
2021/01/01 09:40:50;;;;;;;16.48;12.68;;;;;;;;;;4811855;29;20286;-89
2021/01/01 09:43:17;;;;;;;12.68;10.43;;;;;;;;;;4811724;29;20286;-89
2021/01/01 09:45:44;;;;;;;12.30;10.35;;;;;;;;;;4812173;29;20258;-89
2021/01/01 09:48:12;;;;;;;14.05;11.55;;;;;;;;;;4811469;29;20565;-88
2021/01/01 09:50:39;;;;;;;15.25;11.43;;;;;;;;;;4812369;29;20520;-88
2021/01/01 09:53:06;;;;;;;13.75;11.10;;;;;;;;;;4811384;29;20227;-90
2021/01/01 09:55:33;;;;;;;15.85;10.98;;;;;;;;;;4812290;29;20207;-88
2021/01/01 09:58:00;;;;;;;14.68;12.15;;;;;;;;;;4811268;29;20301;-88
2021/01/01 10:00:27;;;;;;;15.77;12.98;;;;;;;;;;4811714;29;20213;-87
2021/01/01 10:02:54;;;;;;;20.02;11.88;;;;;;;;;;4811914;29;20470;-88
2021/01/01 10:05:22;;;;;;;13.10;10.93;;;;;;;;;;4811361;29;20568;-88
2021/01/01 10:07:49;;;;;;;14.75;11.77;;;;;;;;;;4810877;29;20238;-86
2021/01/01 10:10:16;;;;;;;13.70;11.50;;;;;;;;;;4811735;29;20278;-88
2021/01/01 10:12:42;;;;;;;16.08;11.75;;;;;;;;;;4811949;29;20237;-89
2021/01/01 10:15:10;;;;;;;15.05;11.60;;;;;;;;;;4811931;29;20213;-88
2021/01/01 10:17:38;;;;;;;16.23;11.25;;;;;;;;;;4811780;29;20210;-92
2021/01/01 10:20:06;;;;;;;12.60;9.93;;;;;;;;;;4811922;29;20217;-89
2021/01/01 10:22:35;;;;;;;14.68;11.18;;;;;;;;;;4811670;29;20275;-89
2021/01/01 10:25:03;;;;;;;13.65;10.68;;;;;;;;;;4811911;29;20209;-88
2021/01/01 10:27:30;;;;;;;16.13;11.13;;;;;;;;;;4811594;29;20274;-88
2021/01/01 10:29:57;;;;;;;14.93;12.15;;;;;;;;;;4811275;29;20305;-87
2021/01/01 10:32:24;;;;;;;15.65;11.70;;;;;;;;;;4811978;29;20234;-87
2021/01/01 10:34:51;;;;;;;17.30;13.73;;;;;;;;;;4811602;29;20545;-89
2021/01/01 10:37:18;;;;;;;15.82;12.75;;;;;;;;;;4811299;29;20213;-88
2021/01/01 10:39:46;;;;;;;15.52;12.10;;;;;;;;;;4811063;29;20567;-88
2021/01/01 10:42:13;;;;;;;15.77;13.48;;;;;;;;;;4811188;29;20201;-88
2021/01/01 10:44:40;;;;;;;18.77;12.45;;;;;;;;;;4811608;29;20211;-88
2021/01/01 10:47:07;;;;;;;15.43;12.10;;;;;;;;;;4810798;29;20190;-88
2021/01/01 10:49:35;;;;;;;15.68;11.60;;;;;;;;;;4811737;29;20191;-88
2021/01/01 10:52:02;;;;;;;15.65;11.70;;;;;;;;;;4811565;29;20202;-87
2021/01/01 10:54:29;;;;;;;16.52;12.27;;;;;;;;;;4811957;29;20238;-87
2021/01/01 10:56:57;;;;;;;19.42;14.02;;;;;;;;;;4811566;29;20218;-88
2021/01/01 10:59:24;;;;;;;14.35;10.80;;;;;;;;;;4811913;29;20251;-88
2021/01/01 11:01:55;;;;;;;14.93;12.68;;;;;;;;;;4811029;29;20207;-88
2021/01/01 11:04:22;;;;;;;16.98;12.15;;;;;;;;;;4813110;29;20477;-89
2021/01/01 11:06:49;;;;;;;15.63;12.25;;;;;;;;;;4815178;29;20198;-88
2021/01/01 11:09:16;;;;;;;17.17;12.88;;;;;;;;;;4814184;29;20242;-87
2021/01/01 11:11:43;;;;;;;14.82;11.05;;;;;;;;;;4814449;29;20536;-87
2021/01/01 11:14:14;;;;;;;15.40;11.35;;;;;;;;;;4814229;29;20605;-88
2021/01/01 12:22:58;;;;;;;14.38;10.50;;;;;;;;;;4812957;29;20194;-89
2021/01/01 12:25:26;;;;;;;15.55;11.60;;;;;;;;;;4813785;29;20241;-88
2021/01/01 12:27:55;;;;;;;17.27;12.35;;;;;;;;;;4812857;29;20197;-88
2021/01/01 12:30:25;;;;;;;17.45;11.70;;;;;;;;;;4813258;29;20199;-88
2021/01/01 12:32:53;;;;;;;16.83;11.43;;;;;;;;;;4813098;29;20248;-88
2021/01/01 12:35:21;;;;;;;13.45;10.60;;;;;;;;;;4813684;29;20285;-89
2021/01/01 12:38:00;;;;;;;13.85;10.10;;;;;;;;;;4813059;29;20263;-88
2021/01/01 12:40:28;;;;;;;14.07;10.45;;;;;;;;;;4812979;29;20190;-88
2021/01/01 12:42:55;;;;;;;15.95;10.27;;;;;;;;;;4813020;29;20530;-88
2021/01/01 12:45:22;;;;;;;15.13;11.27;;;;;;;;;;4813136;29;20198;-88
2021/01/01 12:47:50;;;;;;;14.30;11.15;;;;;;;;;;4813152;29;20459;-88
2021/01/01 12:50:17;;;;;;;15.52;11.50;;;;;;;;;;4813436;29;20207;-88
2021/01/01 12:52:56;;;;;;;13.88;9.50;;;;;;;;;;4813428;29;20207;-88
2021/01/01 12:55:24;;;;;;;13.15;9.50;;;;;;;;;;4813430;29;20258;-88
2021/01/01 12:57:52;;;;;;;12.88;9.70;;;;;;;;;;4813278;29;20221;-88
2021/01/01 13:00:20;;;;;;;13.55;10.88;;;;;;;;;;4812747;29;20479;-88
2021/01/01 13:02:47;;;;;;;13.18;10.38;;;;;;;;;;4812931;29;20226;-88
2021/01/01 13:05:14;;;;;;;10.70;8.80;;;;;;;;;;4812827;29;20193;-88
2021/01/01 13:07:42;;;;;;;14.10;10.75;;;;;;;;;;4812297;29;20238;-88
2021/01/01 13:10:11;;;;;;;12.85;9.73;;;;;;;;;;4812811;29;20210;-88
2021/01/01 13:12:39;;;;;;;11.57;9.07;;;;;;;;;;4812722;29;20221;-88
2021/01/01 13:15:08;;;;;;;11.77;9.02;;;;;;;;;;4812503;29;20230;-89
2021/01/01 13:17:35;;;;;;;11.80;8.65;;;;;;;;;;4812660;29;20202;-88
2021/01/01 13:20:03;;;;;;;10.95;8.38;;;;;;;;;;4812633;29;20206;-88
2021/01/01 13:22:30;;;;;;;11.93;9.40;;;;;;;;;;4812724;29;20214;-88
2021/01/01 13:24:57;;;;;;;12.98;9.13;;;;;;;;;;4812921;29;20206;-89
2021/01/01 13:27:26;;;;;;;9.68;7.53;;;;;;;;;;4811446;29;20190;-89
2021/01/01 13:29:54;;;;;;;12.10;7.28;;;;;;;;;;4812340;29;20271;-88
2021/01/01 13:32:21;;;;;;;8.85;6.82;;;;;;;;;;4812739;29;20235;-88
2021/01/01 13:34:48;;;;;;;14.07;9.38;;;;;;;;;;4812553;29;20483;-88
2021/01/01 13:37:15;;;;;;;11.50;8.32;;;;;;;;;;4811559;29;20199;-88
2021/01/01 13:39:42;;;;;;;11.98;8.50;;;;;;;;;;4811329;29;20309;-88
2021/01/01 13:42:13;;;;;;;8.85;6.90;;;;;;;;;;4811793;29;20198;-88
2021/01/01 13:44:41;;;;;;;10.85;8.73;;;;;;;;;;4812191;29;20535;-88
2021/01/01 13:47:08;;;;;;;9.27;7.20;;;;;;;;;;4812085;29;20202;-88
2021/01/01 13:49:35;;;;;;;9.80;7.35;;;;;;;;;;4812457;29;20203;-88
2021/01/01 13:52:02;;;;;;;13.07;8.98;;;;;;;;;;4812220;29;20209;-88
2021/01/01 13:54:29;;;;;;;9.65;7.72;;;;;;;;;;4812021;29;20230;-88
2021/01/01 13:56:57;;;;;;;9.75;8.25;;;;;;;;;;4811812;29;20292;-88
2021/01/01 13:59:23;;;;;;;10.02;7.50;;;;;;;;;;4812286;29;20266;-88
2021/01/01 14:01:51;;;;;;;13.52;8.30;;;;;;;;;;4811495;29;20191;-89
2021/01/01 14:04:18;;;;;;;10.30;7.10;;;;;;;;;;4811610;29;20271;-89
2021/01/01 14:06:45;;;;;;;8.07;6.35;;;;;;;;;;4811127;29;20566;-89
2021/01/01 14:09:12;;;;;;;9.48;7.72;;;;;;;;;;4810873;29;20234;-89
2021/01/01 14:11:39;;;;;;;10.52;7.45;;;;;;;;;;4811976;29;20206;-89
2021/01/01 14:14:06;;;;;;;9.02;6.72;;;;;;;;;;4810467;29;20226;-88
2021/01/01 14:16:33;;;;;;;7.55;6.28;;;;;;;;;;4812030;29;20225;-88
2021/01/01 14:19:01;;;;;;;12.00;7.28;;;;;;;;;;4812029;29;20225;-88
2021/01/01 14:21:29;;;;;;;8.65;6.95;;;;;;;;;;4811996;29;20293;-88
2021/01/01 14:23:56;;;;;;;10.63;6.88;;;;;;;;;;4811987;29;20211;-88
2021/01/01 14:26:23;;;;;;;7.80;6.60;;;;;;;;;;4811941;29;20264;-88
2021/01/01 14:28:50;;;;;;;10.57;7.55;;;;;;;;;;4811565;29;20213;-87
2021/01/01 14:31:17;;;;;;;7.85;6.07;;;;;;;;;;4811452;29;20187;-88
2021/01/01 14:33:44;;;;;;;10.10;7.00;;;;;;;;;;4811315;29;20230;-88
2021/01/01 14:36:12;;;;;;;9.32;6.85;;;;;;;;;;4810840;29;20273;-88
2021/01/01 14:38:39;;;;;;;8.40;6.30;;;;;;;;;;4813815;29;20230;-88
2021/01/01 14:41:06;;;;;;;9.10;7.18;;;;;;;;;;4815073;29;20211;-88
2021/01/01 14:43:33;;;;;;;9.48;6.35;;;;;;;;;;4814937;29;20214;-87
2021/01/01 14:46:00;;;;;;;9.70;6.00;;;;;;;;;;4814610;29;20244;-90
2021/01/01 14:48:28;;;;;;;8.40;6.43;;;;;;;;;;4815206;29;20206;-88
2021/01/01 14:50:55;;;;;;;8.18;6.43;;;;;;;;;;4815218;29;20199;-89
2021/01/01 14:53:23;;;;;;;9.07;6.63;;;;;;;;;;4814933;29;20468;-89
2021/01/01 14:55:52;;;;;;;7.13;6.28;;;;;;;;;;4814744;29;20481;-90
2021/01/01 14:58:19;;;;;;;8.60;6.03;;;;;;;;;;4815384;29;20210;-89
2021/01/01 15:00:46;;;;;;;6.88;5.47;;;;;;;;;;4814866;29;20234;-88
2021/01/01 15:03:12;;;;;;;9.93;7.88;;;;;;;;;;4814502;29;20224;-88
2021/01/01 15:05:39;;;;;;;8.30;6.78;;;;;;;;;;4815674;29;20285;-88
2021/01/01 15:08:06;;;;;;;9.68;7.75;;;;;;;;;;4814902;29;20252;-88
2021/01/01 15:10:34;;;;;;;11.10;7.78;;;;;;;;;;4814753;29;20194;-88
2021/01/01 15:13:04;;;;;;;8.90;7.30;;;;;;;;;;4814884;29;20197;-88
2021/01/01 15:15:31;;;;;;;16.85;8.85;;;;;;;;;;4814390;29;20286;-88
2021/01/01 15:17:58;;;;;;;14.45;8.85;;;;;;;;;;4814804;29;20208;-89
2021/01/01 15:20:24;;;;;;;14.20;7.90;;;;;;;;;;4814737;29;20207;-89
2021/01/01 15:22:51;;;;;;;9.02;7.45;;;;;;;;;;4814652;29;20206;-88
2021/01/01 15:25:18;;;;;;;12.45;9.43;;;;;;;;;;4814856;29;20210;-88
2021/01/01 15:27:46;;;;;;;13.80;8.65;;;;;;;;;;4814981;29;20292;-89
2021/01/01 15:30:14;;;;;;;9.70;7.28;;;;;;;;;;4814125;29;20205;-89
2021/01/01 15:32:41;;;;;;;9.95;7.82;;;;;;;;;;4814260;29;20206;-88
2021/01/01 15:35:09;;;;;;;9.55;7.75;;;;;;;;;;4813889;29;20210;-89
2021/01/01 15:37:37;;;;;;;10.52;8.23;;;;;;;;;;4813821;29;20199;-88
2021/01/01 15:40:05;;;;;;;11.63;7.35;;;;;;;;;;4814285;29;20279;-88
2021/01/01 15:42:32;;;;;;;8.73;7.82;;;;;;;;;;4814514;29;20236;-89
2021/01/01 15:45:00;;;;;;;12.48;9.73;;;;;;;;;;4814819;29;20217;-90
2021/01/01 15:47:32;;;;;;;10.85;8.70;;;;;;;;;;4814476;29;20538;-89